Aviation Digital Data Service (ADDS)

Output produced by METARs form (1630 UTC 23 February 2017)
found at http://aviationweather.gov/adds/metars/
 
KISO 231125Z 2312/2412 VRB03KT P6SM BKN200 
     FM231900 14008KT P6SM SCT040 
     FM232200 14008KT P6SM SCT150 
     FM240200 VRB04KT P6SM FEW140 AMD LTD TO CLD VIS AND WIND